Grand Forks AFB, ND (58204)

7:37 AM CDT on October 20, 2017 (GMT -0500)
Grand Forks Air Force Base | | Change Station

Elev 909 ft 47.96 °N, 97.40 °W | Updated 41 minutes ago

Clear
Clear
47 °F
Feels Like 47 °F
N
6
Wind Variable Wind from SE

Today
High -- | Low -- °F
--% Chance of Precip.
Yesterday
High -- | Low -- °F
Precip. -- in
Pressure 29.58 in
Visibility 10.0 miles
Clouds Clear
Dew Point 45 °F
Humidity 94%
Rainfall 0.00 in
Snow Depth Not available.
7:56 AM 6:31 PM
New Moon, 1% visible
METAR KRDR 201156Z AUTO 14005KT 10SM CLR 08/07 A2958 RMK AO2 SLPNO T00820073 10092 20055 57015
Pressure 29.58 in
Visibility 10.0 miles
Clouds Clear
Dew Point 45 °F
Humidity 94%
Rainfall 0.00 in
Snow Depth Not available.
7:56 AM 6:31 PM
New Moon, 1% visible
METAR KRDR 201156Z AUTO 14005KT 10SM CLR 08/07 A2958 RMK AO2 SLPNO T00820073 10092 20055 57015

Get Severe Weather Alerts

Thanks for signing up!

Be on the lookout for a verification email in your inbox.

You'll start receiving the daily forecast at 6 AM.

×

10-Day Weather Forecast

Almanac

Astronomy

Oct. 20, 2017 Rise Set
Actual Time
Civil Twilight
Nautical Twilight
Astronomical Twilight
Moon
Length of Visible Light
Length of Day
Tomorrow will be .
, % of the Moon is Illuminated

Today's Extremes

State Highs State Lows

Community

WunderPhotos

Category 6

Welcome to Category 6. This is the collective home for Weather Underground's featured writeups by Dr. Jeff Masters (right), Bob Henson (left), Chris Burt, and other regular contributors.

Nearby

Air Quality

  Air Quality AQ Index Pollutant
Not available.

Snow Depth

Station Depth Elevation

Earthquake Activity

City Distance Mag. Time & Date
Minimum magnitude displayed is 2.5.

Coastal Water Temperatures

Place Temperature

Stations

Nearby Weather Stations

Station Location Temp. Windchill Dew Point Humidity Wind Precip. Elev Updated Type
                   

Watches & Warnings

There are currently no watches in effect.